createdAt,value
2023-01-09T00:01:32.157Z,100097.28
2023-01-09T00:04:04.632Z,99968.31
2023-01-09T00:06:31.973Z,100105.47
2023-01-09T00:08:58.666Z,100087.09
2023-01-09T00:11:25.713Z,100079.34
2023-01-09T00:13:53.911Z,100036.53
2023-01-09T00:16:23.967Z,100084.41
2023-01-09T00:18:54.133Z,100078.97
2023-01-09T00:21:21.298Z,100070.53
2023-01-09T00:23:48.011Z,100069.16
2023-01-09T00:26:18.711Z,100069.19
2023-01-09T00:28:46.680Z,100041.22
2023-01-09T00:31:14.242Z,99952.63
2023-01-09T00:33:55.618Z,100088.81
2023-01-09T00:36:25.703Z,100082.38
2023-01-09T00:38:58.762Z,100088.69
2023-01-09T00:41:38.484Z,100095.56
2023-01-09T00:44:12.272Z,100097.25
2023-01-09T00:46:45.479Z,99999.78
2023-01-09T00:49:29.561Z,100088.06
2023-01-09T00:51:58.773Z,100081.97
2023-01-09T00:54:28.316Z,100073.88
2023-01-09T00:56:56.499Z,100075.28
2023-01-09T00:59:23.708Z,100038.94
2023-01-09T01:01:51.394Z,100071.25
2023-01-09T01:04:37.838Z,100065.00
2023-01-09T01:07:29.799Z,100095.09
2023-01-09T01:09:59.272Z,100113.25
2023-01-09T01:12:28.786Z,100109.47
2023-01-09T01:14:55.701Z,100085.09
2023-01-09T01:17:23.224Z,100017.91
2023-01-09T01:19:56.161Z,100001.06
2023-01-09T01:22:25.748Z,100047.00
2023-01-09T01:24:52.441Z,100064.31
2023-01-09T01:27:19.427Z,100037.13
2023-01-09T01:29:46.596Z,100005.63
2023-01-09T01:32:15.011Z,100034.16
2023-01-09T01:34:47.485Z,100043.53
2023-01-09T01:37:15.351Z,100012.63
2023-01-09T01:39:48.860Z,100049.81
2023-01-09T01:42:18.275Z,100022.13
2023-01-09T01:45:18.246Z,100040.06
2023-01-09T01:48:00.117Z,100019.16
2023-01-09T01:50:47.403Z,100053.19
2023-01-09T01:53:16.509Z,100063.38
2023-01-09T01:56:15.884Z,100023.25
2023-01-09T01:58:50.502Z,100054.72
2023-01-09T02:01:27.679Z,100055.31
2023-01-09T02:03:57.609Z,100051.13
2023-01-09T02:06:24.806Z,100036.31
2023-01-09T02:08:51.833Z,100038.81
2023-01-09T02:11:20.366Z,100068.13
2023-01-09T02:13:47.978Z,100060.88
2023-01-09T02:16:19.343Z,100077.72
2023-01-09T02:18:54.806Z,100064.22
2023-01-09T02:22:00.956Z,100077.31
2023-01-09T02:25:03.594Z,100056.84
2023-01-09T02:27:51.747Z,100097.38
2023-01-09T02:30:40.508Z,100012.97
2023-01-09T02:33:28.314Z,100104.94
2023-01-09T02:36:07.808Z,100022.44
2023-01-09T02:38:56.650Z,100087.91
2023-01-09T02:41:29.208Z,100084.84
2023-01-09T02:44:30.366Z,100079.69
2023-01-09T02:47:07.235Z,100051.28
2023-01-09T02:49:41.616Z,100025.38
2023-01-09T02:52:45.429Z,100094.63
2023-01-09T02:55:29.537Z,100056.44
2023-01-09T02:58:30.624Z,100078.97
2023-01-09T03:00:58.704Z,100011.03
2023-01-09T03:03:52.539Z,100048.63
2023-01-09T03:06:43.561Z,100080.97
2023-01-09T03:09:22.928Z,100009.75
2023-01-09T03:12:23.092Z,100079.44
2023-01-09T03:14:56.102Z,100103.28
2023-01-09T03:17:50.829Z,100087.38
2023-01-09T03:20:22.667Z,100072.59
2023-01-09T03:23:07.367Z,100083.03
2023-01-09T03:25:34.644Z,100092.25
2023-01-09T03:28:05.795Z,100059.50
2023-01-09T03:30:36.788Z,99910.47
2023-01-09T03:33:06.306Z,100002.81
2023-01-09T03:35:33.466Z,100034.69
2023-01-09T03:38:15.345Z,100020.50
2023-01-09T03:40:44.974Z,100004.31
2023-01-09T03:43:11.786Z,100027.44
2023-01-09T03:45:38.599Z,100019.22
2023-01-09T03:48:05.568Z,99961.88
2023-01-09T03:50:35.781Z,99993.72
2023-01-09T03:53:14.187Z,100000.69
2023-01-09T03:55:45.909Z,100011.25
2023-01-09T03:58:23.059Z,100011.03
2023-01-09T04:00:51.286Z,100043.22
2023-01-09T04:03:24.759Z,100060.31
2023-01-09T04:05:51.487Z,100007.13
2023-01-09T04:08:24.266Z,100052.81
2023-01-09T04:10:52.494Z,100044.75
2023-01-09T04:13:22.155Z,100054.22
2023-01-09T04:15:49.193Z,100050.31
2023-01-09T04:18:16.577Z,100068.69
2023-01-09T04:20:46.561Z,100068.38
2023-01-09T04:23:13.120Z,100066.19
2023-01-09T04:25:42.946Z,99939.56
2023-01-09T04:28:21.789Z,100045.03
2023-01-09T04:30:48.543Z,99990.69
2023-01-09T04:33:15.342Z,100050.31
2023-01-09T04:35:42.581Z,100063.41
2023-01-09T04:38:09.469Z,100020.50
2023-01-09T04:40:36.222Z,100026.34
2023-01-09T04:43:02.913Z,100029.41
2023-01-09T04:45:29.583Z,100027.44
2023-01-09T04:47:57.049Z,100081.81
2023-01-09T04:50:23.790Z,100087.09
2023-01-09T04:52:57.564Z,100088.50
2023-01-09T04:55:24.401Z,100076.22
2023-01-09T04:57:53.644Z,100087.09
2023-01-09T05:00:20.588Z,100092.94
2023-01-09T05:02:47.222Z,100071.22
2023-01-09T05:05:16.201Z,100088.91
2023-01-09T05:07:42.845Z,100061.88
2023-01-09T05:10:11.116Z,100073.97
2023-01-09T05:12:37.916Z,100075.09
2023-01-09T05:15:07.392Z,100080.81
2023-01-09T05:17:34.337Z,100072.75
2023-01-09T05:20:01.191Z,100060.91
2023-01-09T05:22:31.918Z,100065.91
2023-01-09T05:25:00.336Z,100030.69
2023-01-09T05:27:27.533Z,100055.03
2023-01-09T05:29:56.296Z,100049.75
2023-01-09T05:32:23.351Z,100055.31
2023-01-09T05:34:50.029Z,100028.81
2023-01-09T05:37:16.588Z,100025.75
2023-01-09T05:39:43.169Z,100011.53
2023-01-09T05:42:09.817Z,100047.22
2023-01-09T05:44:38.080Z,100059.19
2023-01-09T05:47:07.735Z,100071.50
2023-01-09T05:49:34.393Z,100075.69
2023-01-09T05:52:10.064Z,99978.16
2023-01-09T05:54:36.902Z,100092.13
2023-01-09T05:57:03.607Z,100059.50
2023-01-09T05:59:32.704Z,99975.19
2023-01-09T06:01:59.370Z,100087.13
2023-01-09T06:04:29.961Z,100117.19
2023-01-09T06:06:58.882Z,100094.06
2023-01-09T06:09:25.668Z,99994.03
2023-01-09T06:11:54.448Z,100115.41
2023-01-09T06:14:22.000Z,100085.00
2023-01-09T06:16:48.649Z,100089.19
2023-01-09T06:19:15.594Z,100020.09
2023-01-09T06:21:42.316Z,100083.06
2023-01-09T06:24:09.111Z,100070.63
2023-01-09T06:26:35.703Z,100068.69
2023-01-09T06:29:02.375Z,100032.75
2023-01-09T06:31:29.046Z,100013.38
2023-01-09T06:33:55.769Z,100071.91
2023-01-09T06:36:22.872Z,100078.47
2023-01-09T06:38:49.443Z,100034.56
2023-01-09T06:41:16.200Z,100070.38
2023-01-09T06:43:42.932Z,99996.41
2023-01-09T06:46:12.187Z,100059.81
2023-01-09T06:48:41.920Z,100072.03
2023-01-09T06:51:08.598Z,100067.19
2023-01-09T06:53:39.178Z,100062.88
2023-01-09T06:56:06.419Z,100056.16
2023-01-09T06:58:33.186Z,100083.88
2023-01-09T07:01:00.496Z,100083.47
2023-01-09T07:03:31.945Z,100092.13
2023-01-09T07:06:08.812Z,100092.13
2023-01-09T07:08:37.139Z,100091.84
2023-01-09T07:11:04.105Z,100088.22
2023-01-09T07:13:31.114Z,100094.34
2023-01-09T07:15:58.243Z,100060.47
2023-01-09T07:18:25.427Z,100062.88
2023-01-09T07:20:56.078Z,100068.00
2023-01-09T07:23:22.759Z,100057.81
2023-01-09T07:25:51.733Z,100042.22
2023-01-09T07:28:19.916Z,100078.44
2023-01-09T07:30:47.631Z,100093.19
2023-01-09T07:33:17.400Z,100097.09
2023-01-09T07:35:44.378Z,100096.56
2023-01-09T07:38:14.315Z,100090.13
2023-01-09T07:40:44.051Z,100086.25
2023-01-09T07:43:16.813Z,100068.13
2023-01-09T07:45:43.666Z,99941.66
2023-01-09T07:48:12.873Z,100017.69
2023-01-09T07:50:42.391Z,100056.53
2023-01-09T07:53:12.145Z,100033.66
2023-01-09T07:55:38.821Z,100018.94
2023-01-09T07:58:05.522Z,99971.63
2023-01-09T08:00:33.261Z,99931.78
2023-01-09T08:03:00.525Z,99965.63
2023-01-09T08:05:30.452Z,99921.00
2023-01-09T08:07:57.215Z,99917.31
2023-01-09T08:10:26.306Z,99921.97
2023-01-09T08:12:52.987Z,99947.06
2023-01-09T08:15:20.066Z,99973.88
2023-01-09T08:17:47.151Z,99964.09
2023-01-09T08:20:17.656Z,100046.09
2023-01-09T08:22:50.678Z,100106.34
2023-01-09T08:25:18.347Z,100005.88
2023-01-09T08:27:45.635Z,100104.09
2023-01-09T08:30:14.788Z,100015.84
2023-01-09T08:32:42.133Z,100115.53
2023-01-09T08:35:11.832Z,100110.50
2023-01-09T08:37:38.516Z,100065.16
2023-01-09T08:40:05.630Z,100108.25
2023-01-09T08:42:50.891Z,100125.28
2023-01-09T08:45:36.258Z,100101.84
2023-01-09T08:48:03.238Z,100092.03
2023-01-09T08:50:30.007Z,100061.63
2023-01-09T08:52:57.053Z,100044.19
2023-01-09T08:55:24.276Z,99971.81
2023-01-09T08:58:00.112Z,100034.41
2023-01-09T09:00:27.052Z,100033.19
2023-01-09T09:03:01.263Z,99954.53
2023-01-09T09:05:34.467Z,99788.25
2023-01-09T09:08:02.767Z,100018.97
2023-01-09T09:10:30.353Z,100040.84
2023-01-09T09:12:58.917Z,100011.19
2023-01-09T09:15:27.239Z,100023.19
2023-01-09T09:17:56.490Z,100040.16
2023-01-09T09:20:25.386Z,100014.97
2023-01-09T09:22:52.334Z,99862.53
2023-01-09T09:25:19.995Z,100055.25
2023-01-09T09:27:47.164Z,100041.44
2023-01-09T09:30:23.967Z,100049.28
2023-01-09T09:32:57.033Z,100037.69
2023-01-09T09:35:28.808Z,100058.94
2023-01-09T09:38:05.582Z,100034.53
2023-01-09T09:40:58.877Z,100061.34
2023-01-09T09:44:09.319Z,100057.81
2023-01-09T09:47:02.022Z,100049.97
2023-01-09T09:49:40.344Z,100040.50
2023-01-09T09:52:34.892Z,100036.72
2023-01-09T09:55:15.249Z,100012.84
2023-01-09T09:57:45.196Z,100002.50
2023-01-09T10:00:19.299Z,100021.41
2023-01-09T10:03:16.490Z,100032.84
2023-01-09T10:05:48.527Z,100039.22
2023-01-09T10:08:36.788Z,100035.81
2023-01-09T10:11:05.303Z,100050.22
2023-01-09T10:13:53.368Z,100048.84
2023-01-09T10:16:46.342Z,100067.44
2023-01-09T10:19:28.537Z,100078.88
2023-01-09T10:22:25.070Z,100015.56
2023-01-09T10:25:05.620Z,100063.56
2023-01-09T10:27:41.407Z,100065.22
2023-01-09T10:30:29.776Z,100052.56
2023-01-09T10:33:15.049Z,100045.94
2023-01-09T10:35:53.727Z,100053.00
2023-01-09T10:38:27.329Z,99808.28
2023-01-09T10:41:06.916Z,100022.25
2023-01-09T10:44:14.667Z,100047.59
2023-01-09T10:46:57.094Z,100035.59
2023-01-09T10:49:24.787Z,100021.09
2023-01-09T10:51:56.978Z,100011.88
2023-01-09T10:54:24.950Z,99916.94
2023-01-09T10:56:56.743Z,100017.56
2023-01-09T11:01:59.922Z,99997.13
2023-01-09T11:04:31.042Z,100004.03
2023-01-09T11:07:07.464Z,100020.22
2023-01-09T11:09:59.999Z,100038.66
2023-01-09T11:12:29.488Z,100018.50
2023-01-09T11:14:56.476Z,100047.34
2023-01-09T11:17:29.432Z,99953.22
2023-01-09T11:20:17.321Z,100006.66
2023-01-09T11:22:49.780Z,99963.50
2023-01-09T11:25:19.845Z,100027.66
2023-01-09T11:28:16.174Z,100024.50
2023-01-09T11:30:57.460Z,100024.91
2023-01-09T11:33:27.881Z,99966.53
2023-01-09T11:35:59.935Z,100010.63
2023-01-09T11:38:31.029Z,100016.31
2023-01-09T11:41:04.330Z,100023.44
2023-01-09T11:43:38.261Z,100014.97
2023-01-09T11:46:08.334Z,99982.06
2023-01-09T11:48:57.324Z,99937.16
2023-01-09T11:51:26.841Z,99766.81
2023-01-09T11:54:22.905Z,100010.28
2023-01-09T11:56:50.638Z,99991.22
2023-01-09T11:59:20.085Z,99995.25
2023-01-09T12:04:42.349Z,100004.31
2023-01-09T12:07:48.697Z,99999.13
2023-01-09T12:10:39.678Z,99980.31
2023-01-09T12:13:28.792Z,99921.06
2023-01-09T12:16:14.102Z,99975.00
2023-01-09T12:18:53.073Z,99946.38
2023-01-09T12:21:22.926Z,99952.53
2023-01-09T12:24:08.494Z,99969.81
2023-01-09T12:27:01.910Z,99977.66
2023-01-09T12:29:57.874Z,99965.72
2023-01-09T12:32:55.276Z,99948.47
2023-01-09T12:35:47.189Z,99959.28
2023-01-09T12:38:30.025Z,99895.00
2023-01-09T12:41:07.851Z,99949.78
2023-01-09T12:44:27.346Z,99944.72
2023-01-09T12:47:36.079Z,99937.53
2023-01-09T12:50:09.629Z,99902.47
2023-01-09T12:52:42.303Z,99939.13
2023-01-09T12:55:18.075Z,99873.06
2023-01-09T12:57:48.991Z,99947.03
2023-01-09T13:00:19.547Z,99870.94
2023-01-09T13:03:03.601Z,99931.72
2023-01-09T13:05:43.319Z,99916.91
2023-01-09T13:08:17.171Z,99932.31
2023-01-09T13:10:48.228Z,99911.06
2023-01-09T13:13:53.312Z,99931.88
2023-01-09T13:16:36.355Z,99928.75
2023-01-09T13:19:21.073Z,99896.53
2023-01-09T13:22:03.229Z,99925.75
2023-01-09T13:25:07.437Z,99913.63
2023-01-09T13:27:41.311Z,99921.25
2023-01-09T13:30:49.425Z,99909.28
2023-01-09T13:33:27.083Z,99911.78
2023-01-09T13:35:57.744Z,99892.03
2023-01-09T13:41:37.677Z,99883.06
2023-01-09T13:44:23.861Z,99901.19
2023-01-09T13:46:58.716Z,99890.66
2023-01-09T13:50:01.189Z,99898.88
2023-01-09T13:52:39.335Z,99852.75
2023-01-09T13:55:12.080Z,99907.81
2023-01-09T13:58:04.537Z,99901.13
2023-01-09T14:00:44.361Z,99899.00
2023-01-09T14:03:19.449Z,99902.50
2023-01-09T14:05:46.580Z,99912.66
2023-01-09T14:08:25.732Z,99912.19
2023-01-09T14:10:58.221Z,99922.53
2023-01-09T14:13:28.156Z,99894.25
2023-01-09T14:16:27.222Z,99916.03
2023-01-09T14:18:59.797Z,99849.50
2023-01-09T14:21:27.565Z,99898.19
2023-01-09T14:24:06.660Z,99907.38
2023-01-09T14:27:04.675Z,99905.03
2023-01-09T14:29:33.234Z,99845.97
2023-01-09T14:32:26.916Z,99915.22
2023-01-09T14:35:15.778Z,99819.03
2023-01-09T14:37:43.922Z,99851.88
2023-01-09T14:40:23.940Z,99899.16
2023-01-09T14:42:55.755Z,99883.16
2023-01-09T14:45:26.871Z,99864.97
2023-01-09T14:48:02.593Z,99782.16
2023-01-09T14:50:35.918Z,99866.88
2023-01-09T14:53:23.681Z,99891.44
2023-01-09T14:55:58.207Z,99880.91
2023-01-09T14:58:36.935Z,99858.84
2023-01-09T15:01:23.042Z,99896.34
2023-01-09T15:03:59.212Z,99867.03
2023-01-09T15:06:29.484Z,99899.06
2023-01-09T15:09:06.976Z,99821.41
2023-01-09T15:11:38.664Z,99876.34
2023-01-09T15:14:24.054Z,99805.56
2023-01-09T15:16:51.260Z,99875.59
2023-01-09T15:19:19.732Z,99877.06
2023-01-09T15:22:01.406Z,99892.50
2023-01-09T15:24:30.650Z,99886.97
2023-01-09T15:27:12.125Z,99897.81
2023-01-09T15:29:41.981Z,99881.13
2023-01-09T15:32:15.358Z,99892.66
2023-01-09T15:34:45.081Z,99843.97
2023-01-09T15:37:30.056Z,99881.66
2023-01-09T15:39:59.968Z,99823.38
2023-01-09T15:42:49.431Z,99879.25
2023-01-09T15:45:38.615Z,99859.78
2023-01-09T15:48:34.951Z,99879.78
2023-01-09T15:51:10.328Z,99870.00
2023-01-09T15:53:37.113Z,99867.44
2023-01-09T15:56:16.291Z,99885.06
2023-01-09T15:58:50.595Z,99894.38
2023-01-09T16:01:40.178Z,99888.13
2023-01-09T16:04:14.174Z,99897.63
2023-01-09T16:06:49.924Z,99885.38
2023-01-09T16:09:19.233Z,99893.53
2023-01-09T16:11:49.212Z,99895.50
2023-01-09T16:14:28.803Z,99850.78
2023-01-09T16:17:02.409Z,99690.09
2023-01-09T16:19:33.552Z,99912.16
2023-01-09T16:22:02.930Z,99896.09
2023-01-09T16:24:48.736Z,99902.88
2023-01-09T16:27:39.664Z,99951.75
2023-01-09T16:30:26.773Z,99944.00
2023-01-09T16:32:53.870Z,99949.69
2023-01-09T16:35:23.785Z,99956.31
2023-01-09T16:37:50.653Z,99930.53
2023-01-09T16:40:17.405Z,99956.88
2023-01-09T16:43:03.962Z,99942.63
2023-01-09T16:45:46.434Z,99929.63
2023-01-09T16:48:14.775Z,99950.09
2023-01-09T16:50:43.296Z,99960.56
2023-01-09T16:53:15.215Z,99944.44
2023-01-09T16:55:42.105Z,99945.22
2023-01-09T16:58:35.424Z,99938.00
2023-01-09T17:03:45.527Z,99968.47
2023-01-09T17:06:21.628Z,99923.03
2023-01-09T17:08:51.714Z,99952.19
2023-01-09T17:11:32.266Z,99964.72
2023-01-09T17:14:06.658Z,99975.00
2023-01-09T17:16:37.027Z,99901.44
2023-01-09T17:19:06.877Z,99961.81
2023-01-09T17:21:33.674Z,99944.03
2023-01-09T17:24:27.377Z,99976.50
2023-01-09T17:27:15.736Z,99974.41
2023-01-09T17:29:43.594Z,99982.56
2023-01-09T17:32:21.812Z,99989.72
2023-01-09T17:34:51.576Z,99992.09
2023-01-09T17:37:22.108Z,100002.13
2023-01-09T17:39:48.997Z,99997.22
2023-01-09T17:42:19.301Z,99999.44
2023-01-09T17:44:46.364Z,100007.03
2023-01-09T17:47:21.572Z,100014.31
2023-01-09T17:49:49.130Z,99991.22
2023-01-09T17:52:16.514Z,99999.03
2023-01-09T17:54:44.033Z,100010.88
2023-01-09T17:57:34.240Z,99933.88
2023-01-09T18:00:01.827Z,100015.69
2023-01-09T18:02:28.841Z,100021.22
2023-01-09T18:04:55.755Z,99997.41
2023-01-09T18:07:23.813Z,100041.69
2023-01-09T18:09:51.862Z,100054.75
2023-01-09T18:12:18.775Z,100055.22
2023-01-09T18:14:46.856Z,100053.53
2023-01-09T18:17:14.519Z,100080.00
2023-01-09T18:19:41.338Z,100078.47
2023-01-09T18:22:08.013Z,100079.09
2023-01-09T18:24:34.949Z,100038.56
2023-01-09T18:27:04.442Z,100009.00
2023-01-09T18:29:31.413Z,100083.94
2023-01-09T18:31:58.140Z,100037.47
2023-01-09T18:34:25.016Z,100055.91
2023-01-09T18:36:51.800Z,100092.97
2023-01-09T18:39:20.459Z,100099.50
2023-01-09T18:41:50.777Z,100107.34
2023-01-09T18:44:20.280Z,100097.59
2023-01-09T18:46:50.167Z,100101.91
2023-01-09T18:49:16.937Z,100121.72
2023-01-09T18:51:45.923Z,100078.13
2023-01-09T18:54:13.283Z,100136.66
2023-01-09T18:56:41.353Z,100143.09
2023-01-09T18:59:12.332Z,100160.38
2023-01-09T19:01:39.155Z,100141.44
2023-01-09T19:04:05.990Z,100177.13
2023-01-09T19:06:32.909Z,100184.94
2023-01-09T19:08:59.840Z,100123.59
2023-01-09T19:11:27.002Z,100154.28
2023-01-09T19:13:56.273Z,100167.81
2023-01-09T19:16:26.182Z,100190.25
2023-01-09T19:18:52.956Z,100215.38
2023-01-09T19:21:22.276Z,100187.78
2023-01-09T19:23:52.629Z,100228.94
2023-01-09T19:26:25.782Z,100157.22
2023-01-09T19:28:55.585Z,100144.22
2023-01-09T19:31:24.707Z,100250.53
2023-01-09T19:33:52.615Z,100204.59
2023-01-09T19:36:19.755Z,100249.81
2023-01-09T19:38:46.905Z,100247.16
2023-01-09T19:41:26.927Z,100228.19
2023-01-09T19:43:54.194Z,100214.75
2023-01-09T19:46:25.699Z,100254.94
2023-01-09T19:48:53.552Z,100257.72
2023-01-09T19:51:23.828Z,100256.59
2023-01-09T19:56:31.716Z,100254.63
2023-01-09T19:59:01.047Z,100263.84
2023-01-09T20:01:33.798Z,100247.66
2023-01-09T20:04:06.170Z,100264.94
2023-01-09T20:06:39.259Z,100271.78
2023-01-09T20:09:07.790Z,100226.56
2023-01-09T20:11:40.270Z,100258.53
2023-01-09T20:14:25.399Z,100254.91
2023-01-09T20:16:54.245Z,100193.22
2023-01-09T20:19:21.284Z,100229.44
2023-01-09T20:21:48.069Z,100144.13
2023-01-09T20:24:18.664Z,100253.97
2023-01-09T20:26:48.569Z,100272.00
2023-01-09T20:29:15.411Z,100274.91
2023-01-09T20:31:42.411Z,100278.00
2023-01-09T20:34:12.961Z,100234.88
2023-01-09T20:36:40.529Z,100276.69
2023-01-09T20:39:14.105Z,100186.31
2023-01-09T20:41:40.991Z,100285.06
2023-01-09T20:44:11.687Z,100251.19
2023-01-09T20:46:41.577Z,100237.50
2023-01-09T20:49:12.359Z,100308.44
2023-01-09T20:51:49.528Z,100279.34
2023-01-09T20:54:18.015Z,100297.47
2023-01-09T20:56:44.850Z,100296.66
2023-01-09T20:59:20.223Z,100320.94
2023-01-09T21:01:48.640Z,100323.03
2023-01-09T21:04:15.574Z,100328.47
2023-01-09T21:06:42.899Z,100283.72
2023-01-09T21:09:12.136Z,100333.03
2023-01-09T21:11:45.067Z,100302.69
2023-01-09T21:14:14.328Z,100294.03
2023-01-09T21:16:41.050Z,100332.44
2023-01-09T21:19:07.855Z,100289.09
2023-01-09T21:21:34.511Z,100331.41
2023-01-09T21:24:01.251Z,100378.41
2023-01-09T21:26:30.746Z,100326.69
2023-01-09T21:29:10.499Z,100375.56
2023-01-09T21:31:42.822Z,100396.84
2023-01-09T21:34:14.660Z,100399.41
2023-01-09T21:36:46.597Z,100393.53
2023-01-09T21:39:15.670Z,100401.63
2023-01-09T21:42:00.840Z,100361.66
2023-01-09T21:44:46.550Z,100410.63
2023-01-09T21:47:13.458Z,100400.38
2023-01-09T21:49:44.704Z,100404.25
2023-01-09T21:52:13.098Z,100394.88
2023-01-09T21:54:40.603Z,100349.25
2023-01-09T21:57:07.489Z,100396.28
2023-01-09T21:59:34.150Z,100398.94
2023-01-09T22:02:00.881Z,100384.09
2023-01-09T22:04:32.057Z,100416.03
2023-01-09T22:06:58.860Z,100387.66
2023-01-09T22:09:31.768Z,100386.53
2023-01-09T22:11:59.192Z,100442.97
2023-01-09T22:14:27.515Z,100336.38
2023-01-09T22:16:54.851Z,100408.75
2023-01-09T22:19:28.581Z,100402.56
2023-01-09T22:21:58.065Z,100433.53
2023-01-09T22:24:24.842Z,100456.59
2023-01-09T22:26:51.546Z,100456.00
2023-01-09T22:29:18.420Z,100425.19
2023-01-09T22:31:45.455Z,100441.34
2023-01-09T22:34:17.369Z,100450.16
2023-01-09T22:36:47.548Z,100440.22
2023-01-09T22:39:19.740Z,100453.00
2023-01-09T22:41:52.926Z,100449.88
2023-01-09T22:44:19.705Z,100430.88
2023-01-09T22:46:49.616Z,100463.78
2023-01-09T22:49:16.381Z,100466.53
2023-01-09T22:51:43.979Z,100404.13
2023-01-09T22:54:11.437Z,100466.22
2023-01-09T22:56:38.280Z,100469.34
2023-01-09T22:59:05.015Z,100434.56
2023-01-09T23:01:31.945Z,100471.25
2023-01-09T23:04:01.325Z,100431.88
2023-01-09T23:06:28.298Z,100469.34
2023-01-09T23:08:59.042Z,100474.53
2023-01-09T23:12:07.498Z,100411.41
2023-01-09T23:14:39.143Z,100483.06
2023-01-09T23:17:07.999Z,100342.19
2023-01-09T23:19:34.904Z,100485.34
2023-01-09T23:22:05.209Z,100480.91
2023-01-09T23:24:32.119Z,100448.50
2023-01-09T23:26:59.191Z,100497.97
2023-01-09T23:29:26.435Z,100502.56
2023-01-09T23:31:53.912Z,100493.44
2023-01-09T23:34:24.421Z,100496.53
2023-01-09T23:36:52.416Z,100494.41
2023-01-09T23:39:19.375Z,100496.94
2023-01-09T23:42:07.243Z,100501.84
2023-01-09T23:44:36.540Z,100417.19
2023-01-09T23:47:03.637Z,100494.38
2023-01-09T23:49:30.533Z,100416.09
2023-01-09T23:51:59.800Z,100470.13
2023-01-09T23:54:26.729Z,100448.28
2023-01-09T23:56:56.477Z,100487.66
2023-01-09T23:59:23.842Z,100471.47
